Time;durP1;ratioP1;P1;durP2;ratioP2;P2;SDS_P1;SDS_P2;PMS_P1;PMS_P2;Temp;Humidity;BMP_temperature;BMP_pressure;BME280_temperature;BME280_humidity;BME280_pressure;Samples;Min_cycle;Max_cycle;Signal;HPM_P1;HPM_P2
2023/12/26 10:43:11;;;;;;;15.80;7.03;;;-1.00;81.00;;;;;;5141705;27;20202;-84
2023/12/26 10:45:39;;;;;;;11.90;6.80;;;-0.90;82.10;;;;;;5115866;27;20055;-84
2023/12/26 10:48:08;;;;;;;10.68;6.35;;;-0.50;81.90;;;;;;5099559;28;20035;-83
2023/12/26 10:50:37;;;;;;;10.60;6.70;;;-0.20;81.10;;;;;;5102604;27;20360;-83
2023/12/26 10:53:05;;;;;;;13.48;7.00;;;0.00;78.70;;;;;;5124813;27;20046;-84
2023/12/26 10:55:34;;;;;;;15.68;7.20;;;0.10;77.90;;;;;;5120007;27;20043;-83
2023/12/26 10:58:02;;;;;;;13.38;7.43;;;0.30;78.20;;;;;;5121387;27;20043;-83
2023/12/26 11:00:31;;;;;;;12.02;6.68;;;0.40;77.00;;;;;;5121828;28;20043;-83
2023/12/26 11:02:57;;;;;;;17.98;7.25;;;0.50;76.50;;;;;;5117987;27;20059;-83
2023/12/26 11:05:24;;;;;;;11.15;7.15;;;0.70;76.80;;;;;;5120088;28;20048;-83
2023/12/26 11:07:52;;;;;;;11.27;6.63;;;0.70;75.80;;;;;;5097485;28;20040;-84
2023/12/26 11:10:18;;;;;;;10.27;6.15;;;0.80;75.00;;;;;;5121507;28;20468;-83
2023/12/26 11:12:45;;;;;;;9.02;6.40;;;0.60;74.90;;;;;;5115600;28;20050;-83
2023/12/26 11:15:12;;;;;;;8.93;5.65;;;0.60;74.60;;;;;;5119357;28;20145;-83
2023/12/26 11:17:58;;;;;;;12.07;6.10;;;0.60;74.80;;;;;;5119321;28;20388;-84
2023/12/26 11:20:26;;;;;;;17.35;6.75;;;0.60;74.80;;;;;;5115450;28;20054;-83
2023/12/26 11:22:52;;;;;;;12.27;6.10;;;0.60;74.20;;;;;;5119539;28;20146;-85
2023/12/26 11:25:19;;;;;;;8.75;6.70;;;0.60;74.00;;;;;;5120024;28;20104;-82
2023/12/26 11:27:47;;;;;;;10.40;7.07;;;0.60;74.00;;;;;;5102387;28;20134;-84
2023/12/26 11:30:16;;;;;;;7.97;5.93;;;0.60;74.30;;;;;;5117533;28;20047;-84
2023/12/26 11:32:42;;;;;;;11.68;6.47;;;0.60;73.70;;;;;;5118634;28;20055;-83
2023/12/26 11:35:11;;;;;;;9.85;5.75;;;0.60;73.90;;;;;;5120667;28;20143;-84
2023/12/26 11:37:38;;;;;;;7.78;5.85;;;0.60;73.80;;;;;;5121090;27;20174;-84
2023/12/26 11:40:04;;;;;;;10.20;6.65;;;0.50;74.30;;;;;;5117366;28;20047;-83
2023/12/26 11:42:32;;;;;;;11.40;6.13;;;0.50;74.10;;;;;;5118700;28;20480;-84
2023/12/26 11:44:59;;;;;;;10.57;5.70;;;0.40;74.40;;;;;;5119818;28;20408;-85
2023/12/26 11:47:26;;;;;;;10.23;5.90;;;0.40;74.50;;;;;;5118203;27;20582;-83
2023/12/26 11:49:54;;;;;;;9.82;5.70;;;0.40;74.50;;;;;;5119592;28;20051;-84
2023/12/26 11:52:22;;;;;;;12.40;6.47;;;0.40;74.50;;;;;;5097325;28;20040;-86
2023/12/26 11:54:48;;;;;;;12.25;6.15;;;0.50;74.60;;;;;;5095390;28;20105;-83
2023/12/26 11:57:16;;;;;;;10.10;6.00;;;0.50;74.30;;;;;;5088762;28;20040;-85
2023/12/26 11:59:42;;;;;;;13.43;7.03;;;0.50;74.20;;;;;;5086892;28;20063;-86
2023/12/26 12:02:08;;;;;;;13.27;6.00;;;0.50;74.30;;;;;;5087771;28;20056;-85
2023/12/26 12:04:36;;;;;;;8.98;6.20;;;0.50;74.60;;;;;;5086786;28;20044;-84
2023/12/26 12:07:12;;;;;;;10.05;5.57;;;0.50;74.40;;;;;;5102313;27;20047;-84
2023/12/26 12:09:41;;;;;;;7.25;4.97;;;0.50;74.90;;;;;;5090547;28;20519;-84
2023/12/26 12:12:07;;;;;;;10.07;5.95;;;0.50;74.80;;;;;;5086764;28;20284;-84
2023/12/26 12:14:33;;;;;;;9.90;5.03;;;0.40;74.50;;;;;;5103771;28;20188;-84
2023/12/26 12:17:15;;;;;;;8.05;5.15;;;0.40;74.80;;;;;;5091627;28;20051;-84
2023/12/26 12:19:47;;;;;;;10.18;5.53;;;0.40;75.20;;;;;;5092984;27;20500;-83
2023/12/26 12:22:27;;;;;;;11.32;5.28;;;0.50;75.30;;;;;;5083700;28;20051;-83
2023/12/26 12:24:55;;;;;;;9.02;5.70;;;0.50;75.10;;;;;;5092100;27;20082;-82
2023/12/26 12:27:21;;;;;;;10.32;5.70;;;0.60;75.60;;;;;;5101243;28;20051;-84
2023/12/26 12:29:59;;;;;;;11.00;6.32;;;0.60;75.30;;;;;;5101872;28;20051;-82
2023/12/26 12:32:36;;;;;;;9.52;5.20;;;0.60;75.20;;;;;;5093692;28;20396;-83
2023/12/26 12:35:16;;;;;;;9.23;5.40;;;0.50;75.10;;;;;;5085352;28;20048;-83
2023/12/26 12:37:43;;;;;;;9.50;5.57;;;0.50;74.70;;;;;;5105763;28;20055;-84
2023/12/26 12:40:10;;;;;;;8.30;5.45;;;0.40;74.80;;;;;;5086869;28;20032;-83
2023/12/26 12:42:38;;;;;;;10.35;5.47;;;0.30;75.10;;;;;;5094134;28;20052;-84
2023/12/26 12:45:05;;;;;;;7.57;5.35;;;0.30;75.40;;;;;;5092992;28;20504;-83
2023/12/26 12:47:33;;;;;;;7.68;5.13;;;0.30;75.30;;;;;;5105383;28;20135;-83
2023/12/26 12:50:01;;;;;;;8.20;5.80;;;0.40;75.80;;;;;;5105673;28;20073;-83
2023/12/26 12:52:27;;;;;;;9.15;5.03;;;0.30;75.40;;;;;;5099216;28;20071;-83
2023/12/26 12:54:54;;;;;;;7.05;4.60;;;0.20;75.30;;;;;;5102440;28;20039;-82
2023/12/26 12:57:23;;;;;;;8.52;5.28;;;0.20;75.60;;;;;;5100639;28;20541;-83
2023/12/26 12:59:49;;;;;;;9.90;4.95;;;0.20;75.90;;;;;;5082499;28;20622;-82
2023/12/26 13:02:15;;;;;;;9.02;5.55;;;0.20;75.60;;;;;;5086835;28;20133;-82
2023/12/26 13:04:44;;;;;;;13.73;6.00;;;0.20;75.70;;;;;;5094175;28;20059;-84
2023/12/26 13:07:11;;;;;;;8.45;5.50;;;0.10;75.80;;;;;;5096495;28;20053;-82
2023/12/26 13:09:39;;;;;;;11.13;5.45;;;0.10;75.90;;;;;;5105768;28;20126;-83
2023/12/26 13:12:07;;;;;;;8.85;5.55;;;0.00;76.30;;;;;;5097662;28;20067;-84
2023/12/26 13:14:36;;;;;;;7.95;4.60;;;0.10;76.30;;;;;;5105957;28;20082;-84
2023/12/26 13:17:03;;;;;;;10.50;6.50;;;0.00;76.50;;;;;;5102549;28;20051;-83
2023/12/26 13:19:30;;;;;;;8.90;6.72;;;0.00;76.50;;;;;;5101310;28;20036;-83
2023/12/26 13:21:59;;;;;;;8.50;5.68;;;0.00;76.80;;;;;;5105262;28;20055;-81
2023/12/26 13:24:25;;;;;;;9.25;5.68;;;0.00;76.90;;;;;;5105523;28;20056;-81
2023/12/26 13:26:53;;;;;;;13.10;6.70;;;0.00;77.00;;;;;;5103878;28;20134;-83
2023/12/26 13:29:23;;;;;;;17.63;9.68;;;0.10;76.90;;;;;;5101325;28;20066;-82
2023/12/26 13:31:53;;;;;;;13.55;9.35;;;0.10;77.20;;;;;;5104503;28;20055;-82
2023/12/26 13:34:19;;;;;;;16.90;9.85;;;0.10;76.80;;;;;;5094974;28;20044;-84
2023/12/26 13:36:46;;;;;;;17.92;9.43;;;0.10;76.90;;;;;;5098236;28;20040;-83
2023/12/26 13:39:14;;;;;;;12.57;7.00;;;0.10;77.00;;;;;;5085286;28;20044;-85
2023/12/26 13:41:41;;;;;;;11.05;6.78;;;0.10;77.00;;;;;;5088792;28;20087;-83
2023/12/26 13:44:16;;;;;;;12.32;6.45;;;0.10;77.00;;;;;;5093505;28;20332;-83
2023/12/26 13:46:42;;;;;;;13.13;6.97;;;0.10;77.30;;;;;;5091466;28;20053;-87
2023/12/26 13:49:17;;;;;;;16.50;6.90;;;0.10;77.40;;;;;;5080348;28;20049;-84
2023/12/26 13:51:47;;;;;;;12.57;6.65;;;0.10;77.30;;;;;;5092558;28;20063;-86
2023/12/26 13:54:25;;;;;;;11.30;7.28;;;0.10;77.20;;;;;;5102855;28;20507;-85
2023/12/26 13:56:53;;;;;;;11.98;7.63;;;0.20;77.40;;;;;;5098088;28;20055;-84
2023/12/26 13:59:23;;;;;;;13.65;7.35;;;0.20;77.40;;;;;;5102634;28;20043;-84
2023/12/26 14:01:50;;;;;;;14.32;8.13;;;0.20;77.30;;;;;;5104191;28;20043;-82
2023/12/26 14:04:19;;;;;;;12.82;7.38;;;0.20;77.40;;;;;;5103106;28;20591;-83
2023/12/26 14:06:47;;;;;;;13.75;8.90;;;0.20;77.10;;;;;;5087247;28;20066;-84
2023/12/26 14:09:14;;;;;;;14.32;7.72;;;0.20;77.20;;;;;;5086799;28;20461;-85
2023/12/26 14:11:41;;;;;;;13.45;7.03;;;0.10;77.40;;;;;;5104279;28;20047;-83
2023/12/26 14:14:09;;;;;;;17.08;6.95;;;0.10;77.50;;;;;;5097457;28;20158;-83
2023/12/26 14:16:39;;;;;;;15.73;7.47;;;0.10;77.80;;;;;;5100884;28;20044;-83
2023/12/26 14:19:06;;;;;;;15.82;7.97;;;0.20;77.60;;;;;;5105153;28;20438;-82
2023/12/26 14:21:35;;;;;;;13.05;7.55;;;0.20;77.60;;;;;;5103704;28;20125;-83
2023/12/26 14:24:03;;;;;;;12.05;7.43;;;0.10;77.40;;;;;;5091743;28;20044;-84
2023/12/26 14:26:31;;;;;;;17.15;8.40;;;0.10;77.20;;;;;;5097458;28;20912;-83
2023/12/26 14:28:58;;;;;;;9.68;7.28;;;0.10;77.90;;;;;;5099309;28;20097;-83
2023/12/26 14:31:28;;;;;;;14.48;7.93;;;0.00;77.70;;;;;;5100606;28;20059;-84
2023/12/26 14:33:55;;;;;;;14.18;7.68;;;0.00;77.90;;;;;;5083804;28;20999;-84
2023/12/26 14:36:23;;;;;;;16.17;7.40;;;0.00;77.70;;;;;;5098911;28;20044;-83
2023/12/26 14:38:52;;;;;;;15.95;7.68;;;0.00;77.80;;;;;;5093014;28;20171;-85
2023/12/26 14:41:20;;;;;;;9.15;6.38;;;0.10;77.90;;;;;;5103716;28;20035;-84
2023/12/26 14:43:53;;;;;;;11.20;6.50;;;0.10;77.70;;;;;;5095928;28;20043;-82
2023/12/26 14:46:24;;;;;;;12.63;6.95;;;0.10;77.70;;;;;;5097588;28;20044;-81
2023/12/26 14:48:52;;;;;;;14.40;7.30;;;0.10;77.40;;;;;;5095348;28;20134;-84
2023/12/26 14:51:19;;;;;;;10.70;6.68;;;0.10;77.20;;;;;;5088290;28;20100;-86
2023/12/26 14:53:47;;;;;;;13.30;7.20;;;0.10;77.30;;;;;;5100072;28;20483;-83
2023/12/26 14:56:16;;;;;;;24.55;12.32;;;0.10;76.90;;;;;;5100305;28;20040;-83
2023/12/26 14:58:43;;;;;;;14.18;7.97;;;0.10;77.00;;;;;;5098929;28;20127;-83
2023/12/26 15:01:10;;;;;;;15.77;8.15;;;0.10;76.90;;;;;;5084767;28;20054;-83
2023/12/26 15:03:40;;;;;;;13.15;7.10;;;0.00;76.80;;;;;;5101525;28;20058;-85
2023/12/26 15:06:14;;;;;;;11.90;7.20;;;0.00;77.00;;;;;;5102217;28;20500;-84
2023/12/26 15:08:42;;;;;;;13.90;7.00;;;0.00;77.00;;;;;;5094451;28;20159;-83
2023/12/26 15:11:16;;;;;;;12.48;6.85;;;0.00;77.00;;;;;;5093194;28;20052;-81
2023/12/26 15:13:43;;;;;;;13.68;8.50;;;0.10;76.70;;;;;;5103246;28;20054;-83
2023/12/26 15:16:24;;;;;;;13.73;6.55;;;0.00;76.90;;;;;;5102246;28;20055;-84
2023/12/26 15:18:54;;;;;;;14.82;6.90;;;0.00;77.00;;;;;;5085498;28;20161;-83
2023/12/26 15:21:21;;;;;;;14.48;7.30;;;0.00;76.80;;;;;;5119911;28;20051;-81
2023/12/26 15:23:51;;;;;;;12.15;7.75;;;0.10;77.10;;;;;;5101033;28;20079;-81
2023/12/26 15:26:21;;;;;;;13.70;7.60;;;0.00;77.00;;;;;;5102602;28;20075;-83
2023/12/26 15:28:51;;;;;;;13.00;7.40;;;0.10;77.00;;;;;;5097965;28;20490;-83
2023/12/26 15:31:20;;;;;;;12.50;7.32;;;0.10;76.70;;;;;;5091914;28;20582;-82
2023/12/26 15:33:49;;;;;;;10.75;6.47;;;0.10;76.30;;;;;;5094685;28;20063;-83
2023/12/26 15:36:21;;;;;;;19.55;8.68;;;0.10;76.00;;;;;;5085621;28;20043;-84
2023/12/26 15:38:49;;;;;;;15.07;6.60;;;0.00;75.90;;;;;;5106473;28;20063;-83
2023/12/26 15:41:20;;;;;;;9.15;6.78;;;0.00;76.30;;;;;;5096186;28;20044;-85
2023/12/26 15:43:47;;;;;;;10.10;6.85;;;0.00;75.90;;;;;;5108718;28;20053;-84
2023/12/26 15:46:25;;;;;;;10.98;6.15;;;0.00;76.10;;;;;;5090652;28;20075;-84
2023/12/26 15:48:54;;;;;;;11.63;6.90;;;0.00;76.20;;;;;;5098261;28;20113;-83
2023/12/26 15:51:24;;;;;;;13.85;7.55;;;0.00;76.50;;;;;;5089973;28;20580;-83
2023/12/26 15:53:57;;;;;;;12.05;7.38;;;0.00;76.40;;;;;;5092332;28;20457;-83
2023/12/26 15:56:27;;;;;;;;;;;0.00;76.60;;;;;;5097492;28;20051;-83
2023/12/26 15:58:55;;;;;;;11.68;6.32;;;0.10;76.70;;;;;;5100241;28;20038;-81
2023/12/26 16:01:23;;;;;;;13.70;7.95;;;0.10;76.80;;;;;;5099152;28;20051;-84
2023/12/26 16:03:51;;;;;;;12.98;7.22;;;0.10;77.10;;;;;;5087741;28;20048;-83
2023/12/26 16:06:20;;;;;;;11.15;7.68;;;0.20;76.70;;;;;;5104807;28;20172;-82
2023/12/26 16:08:47;;;;;;;11.90;6.90;;;0.20;76.50;;;;;;5081522;28;20040;-83
2023/12/26 16:11:15;;;;;;;14.82;7.22;;;0.10;76.10;;;;;;5106908;28;20810;-83
2023/12/26 16:13:44;;;;;;;12.00;6.70;;;0.20;76.00;;;;;;5106056;28;20051;-82
2023/12/26 16:16:12;;;;;;;10.73;6.57;;;0.10;75.90;;;;;;5104669;28;20077;-82
2023/12/26 16:18:50;;;;;;;10.75;6.82;;;0.10;76.30;;;;;;5088744;28;20055;-81
2023/12/26 16:24:45;;;;;;;10.95;6.85;;;0.00;75.90;;;;;;5101483;28;20427;-81
2023/12/26 16:27:44;;;;;;;;;;;;;;;;;;;;;
2023/12/26 16:31:04;;;;;;;9.73;5.85;;;-0.20;76.50;;;;;;5036338;28;20099;-83
2023/12/26 16:34:17;;;;;;;11.60;7.00;;;-0.30;76.60;;;;;;4981726;28;20060;-82
2023/12/26 16:37:09;;;;;;;10.68;6.05;;;-0.40;76.70;;;;;;4983333;28;20111;-82
2023/12/26 16:39:48;;;;;;;12.25;6.75;;;-0.40;76.90;;;;;;5044401;28;20537;-83
2023/12/26 16:42:28;;;;;;;11.35;6.47;;;-0.40;76.70;;;;;;5037590;28;20089;-83
2023/12/26 16:44:59;;;;;;;13.20;6.40;;;-0.40;76.70;;;;;;5033508;28;20080;-82
2023/12/26 16:47:41;;;;;;;;;;;;;;;;;;;;;
2023/12/26 16:51:07;;;;;;;10.13;6.03;;;-0.50;76.60;;;;;;4979715;28;20055;-85
2023/12/26 16:54:11;;;;;;;;;;;;;;;;;;;;;
2023/12/26 16:58:29;;;;;;;15.23;7.03;;;-0.50;77.30;;;;;;4693236;30;20134;-89
2023/12/26 17:05:00;;;;;;;8.73;5.97;;;-0.50;77.10;;;;;;4401939;32;19949;-84
2023/12/26 17:16:02;;;;;;;16.65;8.48;;;-0.40;77.00;;;;;;4527570;30;20647;-83
2023/12/26 17:23:45;;;;;;;;;;;;;;;;;;;;;
2023/12/26 17:27:23;;;;;;;9.25;6.22;;;-0.40;76.60;;;;;;4590592;30;20153;-84
2023/12/26 17:30:10;;;;;;;11.27;6.45;;;-0.40;76.70;;;;;;4625282;30;20137;-84
2023/12/26 17:33:31;;;;;;;13.07;6.38;;;-0.50;77.00;;;;;;4510663;30;20067;-83
2023/12/26 17:36:19;;;;;;;;;;;;;;;;;;;;;
2023/12/26 17:39:07;;;;;;;11.90;6.75;;;-0.50;77.30;;;;;;4424778;32;20076;-83
2023/12/26 17:41:39;;;;;;;13.60;8.18;;;-0.50;77.20;;;;;;4413397;32;20118;-82
2023/12/26 17:44:08;;;;;;;14.77;7.90;;;-0.40;77.30;;;;;;4439124;32;20093;-82
2023/12/26 17:46:38;;;;;;;17.48;8.27;;;-0.50;77.10;;;;;;4413960;32;20072;-85
2023/12/26 17:49:06;;;;;;;13.75;8.35;;;-0.50;77.60;;;;;;4439575;32;20079;-83
2023/12/26 17:51:38;;;;;;;12.70;8.45;;;-0.40;77.40;;;;;;4417435;32;20160;-83
2023/12/26 17:55:05;;;;;;;;;;;;;;;;;;;;;
2023/12/26 17:58:38;;;;;;;;;;;;;;;;;;;;;
2023/12/26 18:05:33;;;;;;;;;;;;;;;;;;;;;
2023/12/26 18:08:39;;;;;;;16.70;8.02;;;-0.40;76.20;;;;;;4921990;29;20055;-90
2023/12/26 18:11:41;;;;;;;12.27;7.13;;;-0.40;76.00;;;;;;4911123;29;20044;-88
2023/12/26 18:21:05;;;;;;;10.55;6.20;;;-0.30;75.40;;;;;;4786239;29;20559;-81
2023/12/26 18:23:52;;;;;;;11.07;7.00;;;-0.30;75.40;;;;;;4955151;28;20120;-83
2023/12/26 18:26:35;;;;;;;9.38;5.85;;;-0.30;75.40;;;;;;5002153;28;20057;-83
2023/12/26 18:29:34;;;;;;;11.68;5.75;;;-0.20;75.20;;;;;;5066460;28;20507;-81
2023/12/26 18:32:48;;;;;;;;;;;;;;;;;;;;;
2023/12/26 18:36:00;;;;;;;;;;;;;;;;;;;;;
2023/12/26 18:39:36;;;;;;;;;;;;;;;;;;;;;
2023/12/26 18:46:14;;;;;;;8.55;5.28;;;-0.40;75.30;;;;;;4863458;29;20663;-84
2023/12/26 18:48:52;;;;;;;9.40;5.80;;;-0.40;75.50;;;;;;4876508;29;20177;-85
2023/12/26 18:56:35;;;;;;;9.00;5.30;;;-0.30;75.20;;;;;;4862214;29;20576;-84
2023/12/26 18:59:07;;;;;;;12.85;6.07;;;-0.30;75.30;;;;;;4881701;29;20213;-87
2023/12/26 19:02:14;;;;;;;10.15;5.30;;;-0.20;75.30;;;;;;4926587;28;20231;-85
2023/12/26 19:04:56;;;;;;;11.07;6.20;;;-0.20;75.10;;;;;;4962276;28;20124;-83
2023/12/26 19:07:24;;;;;;;10.23;5.22;;;-0.20;75.20;;;;;;5063508;28;20098;-86
2023/12/26 19:09:51;;;;;;;10.40;5.63;;;-0.20;75.70;;;;;;5075208;28;20045;-80
2023/12/26 19:12:38;;;;;;;;;;;;;;;;;;;;;
2023/12/26 19:15:28;;;;;;;13.90;5.53;;;-0.20;75.20;;;;;;5070076;28;20036;-85
2023/12/26 19:18:37;;;;;;;10.60;5.70;;;-0.20;75.10;;;;;;5071399;28;20086;-83
2023/12/26 19:21:44;;;;;;;;;;;;;;;;;;;;;
2023/12/26 19:24:55;;;;;;;8.55;5.47;;;-0.10;75.20;;;;;;5016280;28;20600;-83
2023/12/26 19:27:31;;;;;;;9.32;5.75;;;-0.10;75.60;;;;;;4986609;28;20045;-83
2023/12/26 19:30:35;;;;;;;8.23;5.05;;;0.00;75.20;;;;;;5002083;28;20441;-82
2023/12/26 19:33:37;;;;;;;14.43;4.90;;;-0.10;75.00;;;;;;4984752;28;20045;-83
2023/12/26 19:36:07;;;;;;;9.90;5.25;;;0.00;74.80;;;;;;5038009;28;20043;-82
2023/12/26 19:38:38;;;;;;;7.03;4.78;;;0.00;74.50;;;;;;5062667;28;20098;-82
2023/12/26 19:41:05;;;;;;;9.60;5.40;;;0.00;74.50;;;;;;5061582;28;20049;-84
2023/12/26 19:43:34;;;;;;;11.40;5.20;;;0.00;74.60;;;;;;5059900;28;20070;-82
2023/12/26 19:46:02;;;;;;;11.10;6.07;;;0.00;74.90;;;;;;5066502;28;20048;-84
2023/12/26 19:48:29;;;;;;;10.23;4.72;;;0.00;75.00;;;;;;5062890;28;20143;-83
2023/12/26 19:51:00;;;;;;;9.13;5.85;;;0.00;75.10;;;;;;5061979;28;20054;-82
2023/12/26 19:53:31;;;;;;;8.70;5.63;;;0.00;75.30;;;;;;5054830;28;20040;-86
2023/12/26 19:56:05;;;;;;;8.95;6.22;;;0.00;75.20;;;;;;5066379;28;20063;-85
2023/12/26 19:58:35;;;;;;;15.02;7.63;;;0.00;75.80;;;;;;5055224;28;20527;-82
2023/12/26 20:01:03;;;;;;;14.35;7.70;;;0.00;75.80;;;;;;5065984;28;20369;-84
2023/12/26 20:03:30;;;;;;;10.88;7.13;;;0.00;76.00;;;;;;5064341;28;20098;-86
2023/12/26 20:05:58;;;;;;;10.88;6.60;;;0.00;76.00;;;;;;5082722;28;20434;-85
2023/12/26 20:08:29;;;;;;;14.88;7.03;;;0.00;76.10;;;;;;5066543;28;20203;-86
2023/12/26 20:11:07;;;;;;;12.55;6.90;;;-0.10;76.40;;;;;;5066429;28;20036;-86
2023/12/26 20:13:37;;;;;;;8.63;5.85;;;-0.10;76.70;;;;;;5061174;28;20587;-85
2023/12/26 20:16:07;;;;;;;8.98;6.15;;;0.00;76.40;;;;;;5073046;28;20055;-83
2023/12/26 20:18:37;;;;;;;12.48;5.53;;;-0.10;76.20;;;;;;5076335;28;20071;-85
2023/12/26 20:21:06;;;;;;;8.27;4.95;;;-0.10;76.40;;;;;;5063958;28;20141;-83
2023/12/26 20:23:46;;;;;;;14.13;7.32;;;-0.10;76.20;;;;;;5068083;28;20060;-84
2023/12/26 20:26:16;;;;;;;9.23;4.95;;;-0.10;76.50;;;;;;5068160;28;20047;-85
2023/12/26 20:28:45;;;;;;;9.80;5.18;;;-0.10;76.20;;;;;;5052363;28;20064;-84
2023/12/26 20:31:13;;;;;;;10.10;6.30;;;-0.10;76.40;;;;;;5068553;28;20094;-86
2023/12/26 20:33:40;;;;;;;10.43;6.03;;;-0.10;76.40;;;;;;5069807;28;20040;-86
2023/12/26 20:36:08;;;;;;;12.07;6.57;;;-0.10;76.50;;;;;;5084456;28;20480;-85
2023/12/26 20:38:36;;;;;;;14.13;7.03;;;-0.10;76.60;;;;;;5080356;28;20052;-86
2023/12/26 20:41:04;;;;;;;10.63;6.65;;;-0.10;76.60;;;;;;5049444;28;20604;-86
2023/12/26 20:43:31;;;;;;;12.07;7.55;;;-0.10;76.60;;;;;;5082047;28;20059;-84
2023/12/26 20:46:04;;;;;;;14.32;7.20;;;0.00;76.90;;;;;;5070987;28;20036;-84
2023/12/26 20:48:32;;;;;;;11.20;6.82;;;0.00;76.80;;;;;;5068121;28;20117;-84
2023/12/26 20:51:00;;;;;;;14.15;8.10;;;0.00;76.60;;;;;;5067123;28;20052;-87
2023/12/26 20:53:27;;;;;;;13.10;7.15;;;0.00;76.30;;;;;;5067027;28;20048;-86
2023/12/26 20:55:55;;;;;;;13.82;8.43;;;0.00;76.20;;;;;;5066015;28;20048;-85
2023/12/26 20:58:22;;;;;;;14.05;7.90;;;0.00;76.60;;;;;;5065455;28;20412;-85
2023/12/26 21:00:49;;;;;;;38.70;13.57;;;0.00;76.40;;;;;;5052194;28;20501;-87
2023/12/26 21:03:18;;;;;;;29.83;12.52;;;0.10;76.70;;;;;;5049552;28;20053;-88
2023/12/26 21:05:46;;;;;;;35.00;12.38;;;0.20;76.40;;;;;;5067859;28;20065;-86
2023/12/26 21:08:14;;;;;;;56.50;16.25;;;0.10;76.40;;;;;;5065349;28;20408;-83
2023/12/26 21:10:48;;;;;;;62.05;19.55;;;0.10;76.90;;;;;;5062298;28;20057;-83
2023/12/26 21:13:16;;;;;;;43.22;16.77;;;0.10;77.10;;;;;;5047414;28;20073;-84
2023/12/26 21:15:43;;;;;;;55.03;19.73;;;0.10;77.10;;;;;;5045650;28;20049;-84
2023/12/26 21:18:12;;;;;;;47.72;18.45;;;0.10;77.40;;;;;;5063990;28;20052;-84
2023/12/26 21:20:41;;;;;;;60.78;21.48;;;0.20;77.30;;;;;;5078316;28;20055;-84
2023/12/26 21:23:08;;;;;;;53.05;22.73;;;0.20;77.30;;;;;;5103046;28;20458;-83
2023/12/26 21:25:36;;;;;;;42.05;19.90;;;0.10;77.10;;;;;;5068779;28;20529;-83
2023/12/26 21:28:04;;;;;;;45.65;18.50;;;0.20;76.70;;;;;;5066838;28;20048;-82
2023/12/26 21:30:31;;;;;;;45.80;17.63;;;0.10;76.70;;;;;;5067258;28;20508;-83
2023/12/26 21:32:59;;;;;;;36.03;14.40;;;0.20;77.00;;;;;;5065539;28;20051;-82
2023/12/26 21:35:26;;;;;;;37.47;14.55;;;0.20;76.70;;;;;;5065046;28;20058;-83
2023/12/26 21:37:56;;;;;;;44.08;13.60;;;0.20;76.40;;;;;;5065034;28;20102;-84
2023/12/26 21:40:24;;;;;;;49.15;13.50;;;0.30;76.50;;;;;;5066706;28;20106;-82
2023/12/26 21:42:51;;;;;;;40.78;13.05;;;0.10;76.30;;;;;;5044456;28;20052;-82
2023/12/26 21:45:19;;;;;;;32.00;12.10;;;0.20;76.50;;;;;;5058420;28;20040;-82
2023/12/26 21:47:46;;;;;;;49.85;14.73;;;0.10;76.30;;;;;;5066019;28;20048;-82
2023/12/26 21:50:14;;;;;;;52.13;16.27;;;0.10;76.60;;;;;;5065745;28;20052;-83
2023/12/26 21:52:42;;;;;;;38.05;15.18;;;0.10;76.60;;;;;;5067279;28;20052;-83
2023/12/26 21:55:11;;;;;;;36.67;13.75;;;0.10;76.70;;;;;;5066110;28;20464;-82
2023/12/26 21:57:38;;;;;;;29.75;14.52;;;0.10;76.80;;;;;;5065303;28;20041;-82
2023/12/26 22:00:08;;;;;;;33.60;15.63;;;0.10;76.70;;;;;;5069055;28;20168;-83
2023/12/26 22:02:36;;;;;;;37.55;16.45;;;0.10;76.70;;;;;;5065732;28;20048;-84
2023/12/26 22:05:07;;;;;;;36.30;16.20;;;0.10;76.90;;;;;;5046096;28;20126;-83
2023/12/26 22:07:34;;;;;;;37.10;17.73;;;0.00;76.20;;;;;;5046543;28;20598;-82
2023/12/26 22:10:02;;;;;;;33.92;15.85;;;0.00;76.70;;;;;;5075288;28;20060;-83
2023/12/26 22:12:31;;;;;;;28.33;15.45;;;0.00;77.00;;;;;;5064307;28;20045;-82
2023/12/26 22:14:59;;;;;;;26.35;13.70;;;0.00;76.80;;;;;;5067065;28;20057;-82
2023/12/26 22:17:27;;;;;;;29.60;16.45;;;0.10;77.10;;;;;;5065650;28;20044;-81
2023/12/26 22:19:55;;;;;;;27.35;14.73;;;0.10;76.80;;;;;;5048388;28;20535;-84
2023/12/26 22:22:23;;;;;;;25.30;12.07;;;0.10;76.90;;;;;;5065893;28;20559;-82
2023/12/26 22:24:50;;;;;;;26.23;11.45;;;0.10;76.60;;;;;;5065963;28;20076;-83
2023/12/26 22:27:21;;;;;;;20.27;10.00;;;0.20;76.40;;;;;;5067320;28;20060;-83
2023/12/26 22:29:50;;;;;;;22.27;9.25;;;0.10;76.10;;;;;;5065996;28;20158;-82
2023/12/26 22:32:18;;;;;;;18.77;8.60;;;0.10;76.10;;;;;;5082837;28;20098;-82
2023/12/26 22:34:46;;;;;;;15.88;7.97;;;0.00;75.60;;;;;;5067098;28;20421;-83
2023/12/26 22:37:16;;;;;;;18.42;8.82;;;-0.10;75.80;;;;;;5065505;28;20040;-84
2023/12/26 22:39:44;;;;;;;16.75;7.28;;;0.00;75.70;;;;;;5066073;28;20049;-85
2023/12/26 22:42:10;;;;;;;14.88;7.65;;;0.00;75.80;;;;;;5065816;28;20516;-83
2023/12/26 22:44:43;;;;;;;15.20;8.05;;;0.00;75.60;;;;;;5065732;28;20364;-84
2023/12/26 22:47:12;;;;;;;14.02;8.23;;;0.00;75.60;;;;;;5066224;28;20045;-83
2023/12/26 22:49:39;;;;;;;19.00;8.15;;;0.10;76.10;;;;;;5066037;28;20052;-85
2023/12/26 22:52:07;;;;;;;12.07;7.15;;;0.10;75.40;;;;;;5050766;28;20049;-85
2023/12/26 22:54:34;;;;;;;20.33;11.15;;;0.10;75.30;;;;;;5067895;28;20091;-85
2023/12/26 22:57:01;;;;;;;26.02;13.25;;;0.10;75.40;;;;;;5067430;28;20527;-83
2023/12/26 22:59:29;;;;;;;29.52;13.32;;;0.10;75.40;;;;;;5084274;28;20070;-86
2023/12/26 23:01:57;;;;;;;31.73;13.98;;;0.00;75.50;;;;;;5067835;28;20044;-84
2023/12/26 23:04:25;;;;;;;29.73;14.45;;;0.00;75.30;;;;;;5067562;28;20102;-85
2023/12/26 23:06:53;;;;;;;29.52;14.57;;;0.10;76.00;;;;;;5067614;28;20037;-83
2023/12/26 23:09:20;;;;;;;30.65;14.02;;;0.20;75.80;;;;;;5079316;28;20037;-84
2023/12/26 23:11:48;;;;;;;43.30;16.58;;;0.20;75.20;;;;;;5049840;28;20463;-83
2023/12/26 23:14:15;;;;;;;49.97;19.95;;;0.20;75.10;;;;;;5068631;28;20053;-83
2023/12/26 23:16:46;;;;;;;58.53;22.50;;;0.20;75.30;;;;;;5068480;28;20412;-82
2023/12/26 23:19:14;;;;;;;45.30;20.15;;;0.20;75.30;;;;;;5069063;28;20045;-83
2023/12/26 23:21:43;;;;;;;60.85;20.80;;;0.20;74.90;;;;;;5070526;28;20048;-83
2023/12/26 23:24:10;;;;;;;43.30;18.80;;;0.10;75.20;;;;;;5067972;28;20055;-83
2023/12/26 23:26:38;;;;;;;42.08;19.83;;;0.10;75.80;;;;;;5037584;28;20095;-84
2023/12/26 23:29:06;;;;;;;31.05;14.52;;;0.00;76.50;;;;;;5065553;28;20147;-84
2023/12/26 23:31:34;;;;;;;30.23;14.00;;;0.10;76.20;;;;;;5067722;28;20072;-83
2023/12/26 23:34:01;;;;;;;24.35;13.25;;;0.10;76.00;;;;;;5065462;28;20145;-84
2023/12/26 23:36:29;;;;;;;22.13;12.65;;;0.10;75.90;;;;;;5067850;28;20516;-84
2023/12/26 23:38:57;;;;;;;25.77;13.25;;;0.10;75.80;;;;;;5052695;28;20140;-84
2023/12/26 23:41:25;;;;;;;23.83;13.07;;;0.10;76.60;;;;;;5068113;28;20140;-83
2023/12/26 23:43:52;;;;;;;22.45;13.13;;;0.20;76.00;;;;;;5067069;28;20056;-84
2023/12/26 23:46:19;;;;;;;25.75;13.35;;;0.20;76.10;;;;;;5054576;28;20512;-85
2023/12/26 23:48:47;;;;;;;24.38;11.18;;;0.20;76.00;;;;;;5057491;28;20056;-83
2023/12/26 23:51:14;;;;;;;23.30;11.57;;;0.20;76.10;;;;;;5067826;28;20079;-83
2023/12/26 23:53:42;;;;;;;30.20;13.65;;;0.20;75.70;;;;;;5068353;28;20076;-83
2023/12/26 23:56:11;;;;;;;20.35;11.50;;;0.10;76.10;;;;;;5083553;28;20405;-83
2023/12/26 23:58:38;;;;;;;23.98;11.77;;;0.10;76.10;;;;;;5069084;28;20518;-84
